This is the latest recevied weather packets stored in our database for station/object KE8GJZ-1. If no packets are shown the sender has not sent any weather packets the latest 10 day(s).
| Time | Temp. | Humidity | Pressure | Rain* | Wind** | Luminosity | Snow |
|---|---|---|---|---|---|---|---|
| 1778177789 | 12.78° C | 41% | 1010.5 hPa | 0 mm | - | 186 W/m² | - |
| 1778177485 | 12.78° C | 40% | 1010.4 hPa | 0 mm | - | 277 W/m² | - |
| 1778177181 | 12.78° C | 41% | 1010.4 hPa | 0 mm | - | 181 W/m² | - |
| 1778176879 | 12.78° C | 41% | 1010.6 hPa | 0 mm | - | 136 W/m² | - |
| 1778176574 | 13.33° C | 39% | 1010.5 hPa | 0 mm | - | 167 W/m² | - |
| 1778176272 | 13.89° C | 39% | 1010.7 hPa | 0 mm | - | 147 W/m² | - |
| 1778175969 | 14.44° C | 35% | 1010.3 hPa | 0 mm | - | 835 W/m² | - |
| 1778175667 | 13.33° C | 42% | 1010.6 hPa | 0 mm | - | 934 W/m² | - |
| 1778175364 | 13.33° C | 39% | 1010.8 hPa | 0 mm | - | 304 W/m² | - |
| 1778175061 | 13.89° C | 39% | 1010.8 hPa | 0 mm | - | 367 W/m² | - |
| 1778174756 | 13.89° C | 37% | 1011.1 hPa | 0 mm | - | 626 W/m² | - |
| 1778174454 | 12.78° C | 39% | 1010.8 hPa | 0 mm | - | 290 W/m² | - |
| 1778174149 | 13.33° C | 39% | 1011.2 hPa | 0 mm | - | 211 W/m² | - |
| 1778173847 | 13.33° C | 39% | 1011.4 hPa | 0 mm | - | 204 W/m² | - |
| 1778173543 | 13.89° C | 39% | 1011.3 hPa | 0 mm | - | 222 W/m² | - |
| 1778173240 | 13.89° C | 37% | 1011.2 hPa | 0 mm | - | 812 W/m² | - |
| 1778172936 | 13.33° C | 38% | 1011.3 hPa | 0 mm | - | 744 W/m² | - |
| 1778172633 | 13.33° C | 39% | 1011.2 hPa | 0 mm | - | 763 W/m² | - |
| 1778172329 | 12.78° C | 40% | 1011.5 hPa | 0 mm | - | 734 W/m² | - |
| 1778172026 | 12.78° C | 42% | 1011.3 hPa | 0 mm | - | 143 W/m² | - |
| 1778171723 | 14.44° C | 38% | 1011.3 hPa | 0 mm | - | 459 W/m² | - |
| 1778171421 | 13.89° C | 38% | 1011.5 hPa | 0 mm | - | 797 W/m² | - |
| 1778171115 | 12.78° C | 40% | 1011.3 hPa | 0 mm | - | 780 W/m² | - |
| 1778170813 | 12.78° C | 44% | 1011.3 hPa | 0 mm | - | 130 W/m² | - |
| 1778170509 | 13.89° C | 41% | 1011.4 hPa | 0 mm | - | 206 W/m² | - |
* Rain latest hour (hover to see other rain measurements)
** Current wind speed in m/s (hover to see current wind gust speed)